Time;durP1;ratioP1;P1;durP2;ratioP2;P2;SDS_P1;SDS_P2;PMS_P1;PMS_P2;Temp;Humidity;BMP_temperature;BMP_pressure;BME280_temperature;BME280_humidity;BME280_pressure;Samples;Min_cycle;Max_cycle;Signal;HPM_P1;HPM_P2
2023/01/01 00:01:22;;;;;;;;;;;12.80;99.90;;;;;;4997370;28;20554;-80
2023/01/01 00:03:53;;;;;;;4.30;1.92;;;12.80;99.90;;;;;;5016699;28;19924;-80
2023/01/01 00:06:20;;;;;;;3.35;1.58;;;12.80;99.90;;;;;;5014684;28;20164;-81
2023/01/01 00:08:47;;;;;;;1.95;1.15;;;12.80;99.90;;;;;;5014423;28;20099;-81
2023/01/01 00:11:14;;;;;;;4.70;1.70;;;12.80;99.90;;;;;;5012629;28;20068;-80
2023/01/01 00:13:41;;;;;;;4.55;2.58;;;12.80;99.90;;;;;;5016011;28;20432;-80
2023/01/01 00:16:12;;;;;;;3.03;2.08;;;12.80;99.90;;;;;;5018528;28;20132;-80
2023/01/01 00:18:39;;;;;;;4.07;2.40;;;12.70;99.90;;;;;;5017847;28;20068;-80
2023/01/01 00:21:08;;;;;;;2.90;1.77;;;12.60;99.90;;;;;;5001166;28;20053;-80
2023/01/01 00:23:35;;;;;;;4.47;2.60;;;12.40;99.90;;;;;;5001592;28;20059;-81
2023/01/01 00:26:08;;;;;;;4.43;2.20;;;12.30;99.90;;;;;;5018092;28;20075;-81
2023/01/01 00:28:35;;;;;;;3.28;2.40;;;12.30;99.90;;;;;;5012470;28;20054;-79
2023/01/01 00:31:20;;;;;;;2.72;2.15;;;12.20;99.90;;;;;;5010420;28;20057;-80
2023/01/01 00:33:52;;;;;;;2.22;1.98;;;12.10;99.90;;;;;;5015818;28;20049;-81
2023/01/01 00:36:19;;;;;;;3.08;1.80;;;12.10;99.90;;;;;;5011235;28;20049;-83
2023/01/01 00:38:46;;;;;;;3.08;1.70;;;12.00;99.90;;;;;;5000447;28;20798;-81
2023/01/01 00:41:13;;;;;;;2.75;1.20;;;12.00;99.90;;;;;;5013244;28;20099;-82
2023/01/01 00:43:40;;;;;;;4.43;1.60;;;12.00;99.90;;;;;;5022118;28;20107;-81
2023/01/01 00:46:07;;;;;;;6.18;2.33;;;12.00;99.90;;;;;;5013819;28;20065;-82
2023/01/01 00:48:34;;;;;;;4.63;2.05;;;12.00;99.90;;;;;;5012740;28;20107;-82
2023/01/01 00:51:01;;;;;;;3.60;1.52;;;12.00;99.90;;;;;;5013262;28;20179;-82
2023/01/01 00:53:27;;;;;;;3.03;1.75;;;12.00;99.90;;;;;;5017281;28;20085;-82
2023/01/01 00:55:55;;;;;;;3.70;1.33;;;12.00;99.90;;;;;;5014132;28;20049;-81
2023/01/01 00:58:22;;;;;;;3.22;1.50;;;12.00;99.90;;;;;;4987650;28;20057;-82
2023/01/01 01:00:50;;;;;;;2.22;1.30;;;12.00;99.90;;;;;;5012815;28;20357;-81
2023/01/01 01:03:29;;;;;;;3.03;1.35;;;12.00;99.90;;;;;;5020308;28;20148;-81
2023/01/01 01:06:02;;;;;;;3.22;1.08;;;12.00;99.90;;;;;;5013493;28;20057;-82
2023/01/01 01:08:30;;;;;;;2.50;1.25;;;12.00;99.90;;;;;;5015401;28;20063;-81
2023/01/01 01:11:24;;;;;;;4.10;1.38;;;11.90;99.90;;;;;;5012924;28;20089;-81
2023/01/01 01:13:51;;;;;;;;;;;11.90;99.90;;;;;;5009957;28;20049;-82
2023/01/01 01:16:21;;;;;;;2.38;1.00;;;11.80;99.90;;;;;;5007600;28;20447;-81
2023/01/01 01:18:52;;;;;;;4.75;1.73;;;11.80;99.90;;;;;;5018004;28;20537;-82
2023/01/01 01:21:20;;;;;;;3.22;1.23;;;11.80;99.90;;;;;;5013497;28;20056;-81
2023/01/01 01:23:47;;;;;;;5.03;1.20;;;11.80;99.90;;;;;;5020220;28;20261;-82
2023/01/01 01:26:15;;;;;;;2.70;1.02;;;11.70;99.90;;;;;;5016901;28;20475;-81
2023/01/01 01:28:42;;;;;;;2.92;1.17;;;11.80;99.90;;;;;;5004911;28;20061;-82
2023/01/01 01:31:15;;;;;;;2.88;1.33;;;11.80;99.90;;;;;;5018576;28;20081;-81
2023/01/01 01:33:42;;;;;;;5.10;1.60;;;11.70;99.90;;;;;;5016253;28;20550;-82
2023/01/01 01:36:09;;;;;;;5.40;1.45;;;11.70;99.90;;;;;;5014562;28;20057;-81
2023/01/01 01:38:36;;;;;;;2.63;1.08;;;11.70;99.90;;;;;;5003402;28;20121;-82
2023/01/01 01:41:03;;;;;;;4.60;1.60;;;11.70;99.90;;;;;;5012672;28;20064;-81
2023/01/01 01:43:33;;;;;;;4.95;1.42;;;11.70;99.90;;;;;;5018984;28;20521;-81
2023/01/01 01:46:16;;;;;;;2.90;1.08;;;11.70;99.90;;;;;;5015428;28;20046;-82
2023/01/01 01:48:45;;;;;;;4.85;1.63;;;11.70;99.90;;;;;;4966453;28;1244958;-82
2023/01/01 01:51:13;;;;;;;3.67;1.48;;;11.70;99.90;;;;;;5015796;28;20173;-82
2023/01/01 01:53:46;;;;;;;3.42;1.27;;;11.70;99.90;;;;;;5000664;28;20054;-82
2023/01/01 01:56:17;;;;;;;5.25;1.52;;;11.70;99.90;;;;;;5020140;28;20104;-82
2023/01/01 01:58:43;;;;;;;9.73;1.92;;;11.70;99.90;;;;;;5004906;28;20054;-82
2023/01/01 02:01:10;;;;;;;4.65;1.70;;;11.70;99.90;;;;;;5019853;28;20133;-82
2023/01/01 02:03:50;;;;;;;4.38;1.63;;;11.70;99.90;;;;;;5026117;28;20184;-82
2023/01/01 02:06:17;;;;;;;6.82;2.30;;;11.60;99.90;;;;;;4994072;28;20050;-81
2023/01/01 02:08:44;;;;;;;5.72;1.70;;;11.70;99.90;;;;;;5020608;28;20100;-80
2023/01/01 02:11:11;;;;;;;7.20;2.47;;;11.70;99.90;;;;;;5019762;28;20050;-81
2023/01/01 02:13:43;;;;;;;8.35;2.40;;;11.60;99.90;;;;;;5006705;28;20083;-82
2023/01/01 02:16:22;;;;;;;4.90;1.73;;;11.60;99.90;;;;;;5016490;28;20064;-83
2023/01/01 02:18:58;;;;;;;5.18;1.60;;;11.60;99.90;;;;;;5007934;28;20163;-82
2023/01/01 02:21:32;;;;;;;5.88;1.92;;;11.60;99.90;;;;;;5020200;28;20132;-82
2023/01/01 02:24:05;;;;;;;5.70;1.73;;;11.60;99.90;;;;;;5007188;28;20508;-82
2023/01/01 02:26:55;;;;;;;6.70;1.70;;;11.60;99.90;;;;;;5021506;28;20052;-82
2023/01/01 02:29:44;;;;;;;5.45;1.75;;;11.60;99.90;;;;;;5033177;28;20049;-82
2023/01/01 02:32:19;;;;;;;4.65;1.30;;;11.60;99.90;;;;;;5018730;28;20416;-81
2023/01/01 02:34:52;;;;;;;4.03;1.48;;;11.60;99.90;;;;;;4998674;28;20153;-82
2023/01/01 02:37:18;;;;;;;5.65;2.17;;;11.50;99.90;;;;;;4985050;28;20058;-81
2023/01/01 02:39:49;;;;;;;8.68;2.47;;;11.50;99.90;;;;;;5018393;28;20507;-81
2023/01/01 02:42:16;;;;;;;4.60;1.65;;;11.60;99.90;;;;;;5005997;28;20053;-81
2023/01/01 02:44:44;;;;;;;6.68;2.55;;;11.50;99.90;;;;;;5024987;28;20453;-81
2023/01/01 02:47:14;;;;;;;9.15;2.10;;;11.50;99.90;;;;;;5009909;28;20049;-81
2023/01/01 02:50:12;;;;;;;5.07;1.60;;;11.50;99.90;;;;;;5004301;28;20049;-81
2023/01/01 02:53:02;;;;;;;6.57;2.00;;;11.50;99.90;;;;;;5023444;28;20089;-81
2023/01/01 02:55:42;;;;;;;7.90;1.95;;;11.50;99.90;;;;;;5013752;28;20258;-81
2023/01/01 03:01:32;;;;;;;3.78;1.65;;;11.40;99.90;;;;;;5003967;28;20079;-80
2023/01/01 03:04:08;;;;;;;4.05;1.00;;;11.40;99.90;;;;;;5004091;28;20655;-81
2023/01/01 03:06:47;;;;;;;4.45;1.20;;;11.40;99.90;;;;;;5022193;28;20168;-81
2023/01/01 03:09:36;;;;;;;3.78;2.30;;;11.30;99.90;;;;;;5002281;28;20137;-81
2023/01/01 03:12:11;;;;;;;5.28;1.40;;;11.30;99.90;;;;;;5021697;28;20053;-81
2023/01/01 03:14:43;;;;;;;5.97;1.75;;;11.30;99.90;;;;;;5018557;28;20599;-80
2023/01/01 03:17:34;;;;;;;3.60;1.60;;;11.30;99.90;;;;;;5000972;28;20058;-82
2023/01/01 03:20:03;;;;;;;7.47;1.83;;;11.20;99.90;;;;;;5029834;28;20614;-82
2023/01/01 03:22:31;;;;;;;5.97;2.17;;;11.20;99.90;;;;;;5019142;28;20056;-81
2023/01/01 03:25:07;;;;;;;4.60;1.33;;;11.20;99.90;;;;;;5019433;28;20103;-82
2023/01/01 03:27:37;;;;;;;3.17;1.20;;;11.20;99.90;;;;;;4993529;28;20041;-81
2023/01/01 03:30:07;;;;;;;3.17;0.95;;;11.10;99.90;;;;;;5018829;28;20136;-82
2023/01/01 03:33:04;;;;;;;3.40;1.13;;;11.10;99.90;;;;;;5021355;28;20051;-80
2023/01/01 03:35:50;;;;;;;4.30;1.42;;;11.10;99.90;;;;;;5015853;28;20122;-81
2023/01/01 03:38:23;;;;;;;3.92;1.67;;;11.10;99.90;;;;;;5017530;28;20045;-81
2023/01/01 03:40:51;;;;;;;6.72;1.63;;;11.10;99.90;;;;;;5002061;28;20138;-81
2023/01/01 03:43:29;;;;;;;5.15;1.95;;;11.00;99.90;;;;;;5005224;28;20117;-81
2023/01/01 03:45:56;;;;;;;5.07;1.70;;;11.10;99.90;;;;;;5004795;28;20050;-81
2023/01/01 03:48:23;;;;;;;4.63;1.48;;;11.00;99.90;;;;;;5003331;28;20141;-82
2023/01/01 03:51:13;;;;;;;2.50;1.17;;;11.00;99.90;;;;;;5022758;28;20519;-80
2023/01/01 03:53:41;;;;;;;4.82;1.65;;;11.00;99.90;;;;;;5021685;28;20219;-81
2023/01/01 03:56:34;;;;;;;5.13;1.67;;;11.00;99.90;;;;;;5001158;28;20140;-81
2023/01/01 03:59:22;;;;;;;4.87;1.87;;;11.00;99.90;;;;;;5018844;28;20533;-81
2023/01/01 04:01:51;;;;;;;4.68;1.45;;;11.00;99.90;;;;;;5002640;28;20053;-81
2023/01/01 04:04:18;;;;;;;3.08;1.33;;;11.00;99.90;;;;;;5017729;28;20049;-81
2023/01/01 04:06:45;;;;;;;5.45;1.50;;;11.00;99.90;;;;;;5006598;28;20107;-81
2023/01/01 04:09:15;;;;;;;4.60;1.70;;;11.00;99.90;;;;;;5007991;28;20052;-82
2023/01/01 04:12:03;;;;;;;6.43;2.17;;;11.00;99.90;;;;;;5017990;28;20060;-81
2023/01/01 04:14:34;;;;;;;2.90;1.35;;;11.00;99.90;;;;;;5018464;28;20057;-81
2023/01/01 04:17:01;;;;;;;3.78;1.40;;;11.00;99.90;;;;;;5013238;28;20056;-81
2023/01/01 04:19:28;;;;;;;4.35;1.45;;;11.00;99.90;;;;;;5004747;28;20104;-82
2023/01/01 04:21:55;;;;;;;8.10;2.55;;;11.00;99.90;;;;;;5014563;28;20053;-81
2023/01/01 04:24:22;;;;;;;6.00;1.92;;;11.00;99.90;;;;;;5018802;28;20165;-82
2023/01/01 04:26:52;;;;;;;5.88;1.85;;;11.00;99.90;;;;;;5017291;28;20041;-81
2023/01/01 04:29:19;;;;;;;5.20;1.60;;;11.00;99.90;;;;;;5000757;28;20058;-81
2023/01/01 04:31:46;;;;;;;6.70;2.45;;;11.00;99.90;;;;;;4980477;28;20809;-82
2023/01/01 04:34:13;;;;;;;4.68;1.30;;;11.00;99.90;;;;;;4988717;28;20049;-81
2023/01/01 04:36:39;;;;;;;4.18;1.60;;;11.00;99.90;;;;;;4989175;28;20148;-81
2023/01/01 04:39:06;;;;;;;4.47;1.50;;;11.00;99.90;;;;;;5005226;28;20144;-81
2023/01/01 04:41:33;;;;;;;12.63;2.63;;;11.00;99.90;;;;;;5017219;28;20053;-81
2023/01/01 04:44:00;;;;;;;6.13;1.77;;;11.00;99.90;;;;;;5021958;28;20072;-81
2023/01/01 04:46:26;;;;;;;5.35;1.75;;;11.00;99.90;;;;;;5018230;28;20179;-81
2023/01/01 04:48:53;;;;;;;7.30;2.13;;;11.00;99.90;;;;;;5018325;28;20124;-82
2023/01/01 04:51:20;;;;;;;4.60;1.83;;;11.00;99.90;;;;;;5017688;28;20136;-81
2023/01/01 04:53:47;;;;;;;4.80;1.70;;;11.00;99.90;;;;;;5007835;28;20045;-82
2023/01/01 04:56:18;;;;;;;6.53;2.25;;;11.00;99.90;;;;;;5018827;28;20214;-81
2023/01/01 04:58:45;;;;;;;11.57;2.50;;;11.00;99.90;;;;;;5018256;28;20069;-82
2023/01/01 05:01:22;;;;;;;6.85;2.15;;;11.00;99.90;;;;;;4999949;28;20173;-81
2023/01/01 05:03:49;;;;;;;7.00;1.63;;;11.00;99.90;;;;;;5020492;28;20693;-81
2023/01/01 05:06:16;;;;;;;4.90;1.90;;;11.00;99.90;;;;;;5016406;28;20601;-81
2023/01/01 05:08:44;;;;;;;4.28;1.98;;;11.00;99.90;;;;;;5018780;28;20053;-81
2023/01/01 05:11:13;;;;;;;3.67;1.90;;;11.00;99.90;;;;;;5022277;28;20440;-81
2023/01/01 05:13:41;;;;;;;5.38;1.67;;;11.00;99.90;;;;;;5024150;28;20060;-81
2023/01/01 05:16:10;;;;;;;3.20;1.30;;;10.90;99.90;;;;;;5001991;28;20072;-80
2023/01/01 05:18:37;;;;;;;5.90;1.73;;;10.90;99.90;;;;;;5018387;28;20596;-81
2023/01/01 05:21:15;;;;;;;5.30;1.98;;;10.90;99.90;;;;;;5014774;28;20134;-81
2023/01/01 05:23:41;;;;;;;7.00;2.25;;;10.90;99.90;;;;;;5018754;28;20640;-81
2023/01/01 05:26:16;;;;;;;4.75;2.17;;;10.90;99.90;;;;;;5016988;28;20642;-80
2023/01/01 05:28:43;;;;;;;5.28;1.90;;;10.90;99.90;;;;;;5021598;28;20049;-80
2023/01/01 05:31:17;;;;;;;6.50;2.25;;;10.90;99.90;;;;;;5018454;28;20057;-80
2023/01/01 05:33:44;;;;;;;8.57;3.28;;;10.90;99.90;;;;;;4998219;28;20049;-81
2023/01/01 05:36:16;;;;;;;6.30;2.00;;;10.80;99.90;;;;;;5019098;28;20107;-80
2023/01/01 05:38:42;;;;;;;7.10;2.00;;;10.80;99.90;;;;;;5016582;28;20045;-81
2023/01/01 05:41:10;;;;;;;5.30;2.00;;;10.80;99.90;;;;;;5016805;28;20489;-80
2023/01/01 05:43:37;;;;;;;9.20;2.53;;;10.80;99.90;;;;;;5017432;28;20399;-81
2023/01/01 05:46:05;;;;;;;8.00;1.90;;;10.80;99.90;;;;;;5018207;28;20056;-81
2023/01/01 05:48:34;;;;;;;6.30;1.52;;;10.80;99.90;;;;;;5012703;28;20076;-81
2023/01/01 05:51:26;;;;;;;8.38;2.25;;;10.80;99.90;;;;;;5013022;28;20052;-81
2023/01/01 05:53:53;;;;;;;6.90;2.35;;;10.90;99.90;;;;;;5020988;28;21140;-82
2023/01/01 05:56:20;;;;;;;4.05;1.60;;;10.90;99.90;;;;;;5015977;28;20053;-81
2023/01/01 05:58:47;;;;;;;5.38;2.22;;;10.90;99.90;;;;;;5017061;28;20401;-81
2023/01/01 06:01:21;;;;;;;9.98;2.28;;;10.90;99.90;;;;;;5013085;28;20056;-81
2023/01/01 06:03:49;;;;;;;7.10;1.65;;;10.90;99.90;;;;;;5017557;28;20169;-81
2023/01/01 06:06:17;;;;;;;7.18;2.17;;;10.90;99.90;;;;;;4998308;28;20104;-81
2023/01/01 06:08:51;;;;;;;6.15;1.88;;;10.90;99.90;;;;;;5013769;28;20049;-80
2023/01/01 06:11:17;;;;;;;5.47;1.92;;;10.90;99.90;;;;;;5015319;28;20391;-80
2023/01/01 06:13:44;;;;;;;3.83;1.50;;;10.90;99.90;;;;;;5016353;28;20485;-81
2023/01/01 06:16:11;;;;;;;3.95;1.45;;;10.90;99.90;;;;;;5014949;28;20048;-81
2023/01/01 06:18:38;;;;;;;2.88;1.25;;;10.90;99.90;;;;;;5003514;28;20086;-81
2023/01/01 06:21:09;;;;;;;4.07;1.20;;;10.90;99.90;;;;;;5015495;28;20046;-81
2023/01/01 06:23:35;;;;;;;7.05;2.03;;;10.90;99.90;;;;;;5000324;28;20054;-81
2023/01/01 06:26:11;;;;;;;6.82;1.90;;;10.90;99.90;;;;;;5011729;28;20053;-81
2023/01/01 06:28:38;;;;;;;8.82;2.20;;;10.90;99.90;;;;;;5025633;28;20534;-81
2023/01/01 06:31:06;;;;;;;6.20;1.90;;;10.90;99.90;;;;;;5012498;28;20094;-80
2023/01/01 06:33:33;;;;;;;4.85;1.90;;;10.90;99.90;;;;;;5015038;28;20046;-81
2023/01/01 06:36:01;;;;;;;3.92;1.55;;;10.90;99.90;;;;;;5008292;28;20092;-81
2023/01/01 06:38:33;;;;;;;11.98;1.98;;;10.90;99.90;;;;;;5016861;28;20049;-81
2023/01/01 06:41:02;;;;;;;4.93;1.67;;;10.90;99.90;;;;;;5013714;28;20057;-81
2023/01/01 06:43:31;;;;;;;5.57;1.70;;;10.90;99.90;;;;;;5015411;28;20518;-81
2023/01/01 06:46:28;;;;;;;3.65;1.48;;;10.90;99.90;;;;;;5000727;28;20080;-81
2023/01/01 06:48:59;;;;;;;8.88;2.03;;;10.90;99.90;;;;;;5026677;28;20068;-81
2023/01/01 06:51:35;;;;;;;4.93;1.63;;;10.90;99.90;;;;;;5017327;28;20069;-81
2023/01/01 06:54:03;;;;;;;5.65;1.60;;;10.90;99.90;;;;;;5000525;28;20061;-80
2023/01/01 06:56:29;;;;;;;7.90;2.00;;;10.90;99.90;;;;;;4997877;28;20362;-80
2023/01/01 06:58:56;;;;;;;8.63;2.65;;;10.90;99.90;;;;;;5022102;28;20053;-80
2023/01/01 07:01:25;;;;;;;4.03;1.58;;;11.00;99.90;;;;;;5016879;28;20224;-81
2023/01/01 07:03:55;;;;;;;5.47;1.65;;;11.00;99.90;;;;;;5016262;28;20054;-80
2023/01/01 07:06:23;;;;;;;5.60;2.20;;;11.00;99.90;;;;;;5013887;28;20063;-79
2023/01/01 07:08:49;;;;;;;4.25;1.60;;;11.00;99.90;;;;;;5005791;28;20056;-80
2023/01/01 07:11:16;;;;;;;5.47;1.75;;;11.00;99.90;;;;;;5013314;28;20393;-80
2023/01/01 07:13:43;;;;;;;4.93;1.70;;;11.00;99.90;;;;;;5002783;28;20042;-78
2023/01/01 07:16:10;;;;;;;6.05;1.70;;;11.00;99.90;;;;;;4994227;28;20137;-80
2023/01/01 07:18:39;;;;;;;13.13;2.72;;;11.00;99.90;;;;;;4999947;28;20060;-80
2023/01/01 07:21:06;;;;;;;6.47;2.38;;;11.00;99.90;;;;;;5017775;28;20123;-80
2023/01/01 07:23:33;;;;;;;8.70;2.67;;;11.00;99.90;;;;;;5014010;28;20057;-80
2023/01/01 07:26:00;;;;;;;7.13;2.35;;;11.00;99.90;;;;;;4983331;28;20057;-80
2023/01/01 07:28:27;;;;;;;10.77;2.72;;;11.00;99.90;;;;;;5017679;28;20496;-80
2023/01/01 07:30:54;;;;;;;7.65;2.55;;;11.00;99.90;;;;;;5014541;28;20053;-81
2023/01/01 07:33:22;;;;;;;7.00;2.25;;;10.90;99.90;;;;;;5015304;28;20058;-80
2023/01/01 07:35:48;;;;;;;7.00;2.08;;;10.90;99.90;;;;;;4981414;28;20148;-80
2023/01/01 07:38:15;;;;;;;7.03;2.08;;;10.80;99.90;;;;;;5013456;28;20060;-80
2023/01/01 07:40:42;;;;;;;5.25;1.88;;;10.80;99.90;;;;;;5019125;28;20046;-81
2023/01/01 07:43:11;;;;;;;7.00;2.28;;;10.80;99.90;;;;;;5013594;28;20520;-80
2023/01/01 07:45:37;;;;;;;4.88;1.63;;;10.70;99.90;;;;;;5001048;28;20441;-79
2023/01/01 07:48:04;;;;;;;5.57;1.88;;;10.70;99.90;;;;;;5012552;28;20144;-79
2023/01/01 07:50:31;;;;;;;4.22;1.70;;;10.70;99.90;;;;;;5000341;28;20041;-80
2023/01/01 07:52:58;;;;;;;5.10;1.70;;;10.60;99.90;;;;;;5003275;28;20061;-81
2023/01/01 07:55:25;;;;;;;4.63;1.83;;;10.70;99.90;;;;;;4996011;28;20038;-80
2023/01/01 07:57:52;;;;;;;6.05;1.55;;;10.60;99.90;;;;;;5004975;28;20045;-80
2023/01/01 08:00:19;;;;;;;6.22;1.70;;;10.70;99.90;;;;;;5000965;28;20049;-80
2023/01/01 08:02:46;;;;;;;5.82;2.10;;;10.70;99.90;;;;;;4985929;28;20045;-80
2023/01/01 08:05:13;;;;;;;4.50;2.22;;;10.60;99.90;;;;;;4996917;28;21040;-80
2023/01/01 08:07:41;;;;;;;4.95;1.63;;;10.60;99.90;;;;;;4997710;28;20068;-80
2023/01/01 08:10:09;;;;;;;3.28;1.83;;;10.60;99.90;;;;;;5000591;28;20857;-80
2023/01/01 08:12:35;;;;;;;6.53;1.60;;;10.60;99.90;;;;;;4998423;28;20084;-80
2023/01/01 08:15:02;;;;;;;4.95;1.58;;;10.60;99.90;;;;;;5010325;28;20046;-79
2023/01/01 08:17:29;;;;;;;3.58;1.20;;;10.60;99.90;;;;;;4996219;28;20125;-80
2023/01/01 08:19:55;;;;;;;6.45;1.83;;;10.60;99.90;;;;;;5013240;28;20049;-78
2023/01/01 08:22:22;;;;;;;5.47;1.58;;;10.60;99.90;;;;;;5015040;28;20124;-80
2023/01/01 08:24:49;;;;;;;6.68;1.85;;;10.60;99.90;;;;;;4996778;28;20055;-80
2023/01/01 08:27:16;;;;;;;8.80;2.15;;;10.50;99.90;;;;;;5004780;28;20140;-80
2023/01/01 08:29:43;;;;;;;6.70;2.47;;;10.60;99.90;;;;;;4993032;28;20053;-80
2023/01/01 08:32:10;;;;;;;5.45;2.15;;;10.60;99.90;;;;;;4997419;28;20059;-80
2023/01/01 08:34:37;;;;;;;4.07;1.50;;;10.60;99.90;;;;;;5007327;28;20052;-80
2023/01/01 08:37:04;;;;;;;4.97;1.98;;;10.70;99.90;;;;;;5013138;28;20057;-80
2023/01/01 08:39:30;;;;;;;6.40;2.08;;;10.60;99.90;;;;;;5009242;28;20049;-82
2023/01/01 08:41:57;;;;;;;7.82;2.10;;;10.70;99.90;;;;;;5011515;28;20059;-79
2023/01/01 08:44:24;;;;;;;10.40;2.50;;;10.70;99.90;;;;;;5013222;28;20133;-79
2023/01/01 08:46:51;;;;;;;11.48;3.05;;;10.70;99.90;;;;;;5013952;28;20107;-78
2023/01/01 08:49:18;;;;;;;7.38;2.78;;;10.80;99.90;;;;;;4982169;28;20167;-78
2023/01/01 08:51:45;;;;;;;8.20;2.83;;;10.80;99.90;;;;;;4989187;28;20116;-79
2023/01/01 08:54:12;;;;;;;9.07;2.25;;;10.80;99.90;;;;;;5008080;28;20053;-79
2023/01/01 08:56:39;;;;;;;6.88;2.38;;;10.80;99.90;;;;;;5012494;28;20068;-80
2023/01/01 08:59:05;;;;;;;8.57;2.53;;;10.70;99.90;;;;;;5015088;28;20060;-79
2023/01/01 09:01:32;;;;;;;6.65;2.42;;;10.70;99.90;;;;;;5008384;28;20097;-79
2023/01/01 09:03:59;;;;;;;7.38;2.53;;;10.70;99.90;;;;;;5011791;28;20050;-82
2023/01/01 09:06:26;;;;;;;4.57;1.83;;;10.70;99.90;;;;;;5008076;28;20155;-79
2023/01/01 09:08:53;;;;;;;9.15;2.92;;;10.70;99.90;;;;;;4999735;28;20046;-79
2023/01/01 09:11:22;;;;;;;7.82;2.78;;;10.80;99.90;;;;;;5012552;28;20153;-80
2023/01/01 09:13:49;;;;;;;5.15;2.20;;;10.80;99.90;;;;;;4996428;28;20533;-79
2023/01/01 09:16:16;;;;;;;8.60;2.15;;;10.80;99.90;;;;;;5012447;28;20110;-78
2023/01/01 09:18:42;;;;;;;9.48;2.85;;;10.90;99.90;;;;;;4998239;28;20049;-80
2023/01/01 09:21:09;;;;;;;6.65;2.25;;;10.90;99.90;;;;;;4995830;28;20065;-80
2023/01/01 09:23:36;;;;;;;8.55;2.65;;;10.90;99.90;;;;;;4992274;28;20055;-79
2023/01/01 09:26:07;;;;;;;9.30;2.40;;;11.00;99.90;;;;;;5008457;28;20056;-79
2023/01/01 09:28:34;;;;;;;6.00;2.53;;;11.10;99.90;;;;;;4998470;28;20220;-79
2023/01/01 09:31:03;;;;;;;11.13;2.75;;;11.10;99.90;;;;;;5013175;28;20456;-79
2023/01/01 09:33:31;;;;;;;12.98;3.63;;;11.10;99.90;;;;;;5010544;28;20049;-79
2023/01/01 09:36:17;;;;;;;9.27;3.08;;;11.20;99.90;;;;;;5007582;28;20050;-79
2023/01/01 09:38:50;;;;;;;8.38;2.70;;;11.20;99.90;;;;;;5012017;28;20140;-79
2023/01/01 09:41:49;;;;;;;6.72;2.20;;;11.20;99.90;;;;;;5010843;28;20057;-79
2023/01/01 09:44:39;;;;;;;6.22;1.75;;;11.20;99.90;;;;;;4969952;28;20067;-79
2023/01/01 09:47:43;;;;;;;5.07;2.22;;;11.20;99.90;;;;;;4998617;28;20629;-79
2023/01/01 09:50:19;;;;;;;5.85;2.33;;;11.30;99.90;;;;;;4995878;28;20104;-79
2023/01/01 09:52:58;;;;;;;9.75;3.10;;;11.30;99.90;;;;;;5004244;28;20046;-80
2023/01/01 09:55:52;;;;;;;9.23;2.30;;;11.30;99.90;;;;;;5002180;28;20139;-79
2023/01/01 09:58:22;;;;;;;8.77;2.42;;;11.40;99.90;;;;;;5005736;28;20374;-79
2023/01/01 10:00:52;;;;;;;8.18;2.70;;;11.40;99.90;;;;;;4994119;28;20049;-79
2023/01/01 10:03:31;;;;;;;4.60;1.80;;;11.40;99.90;;;;;;4998617;28;20056;-79
2023/01/01 10:06:21;;;;;;;9.30;2.28;;;11.50;99.90;;;;;;5011746;28;20123;-80
2023/01/01 10:09:20;;;;;;;9.57;2.50;;;11.50;99.90;;;;;;5021954;28;20444;-80
2023/01/01 10:12:26;;;;;;;5.47;2.38;;;11.50;99.90;;;;;;4988758;28;20077;-80
2023/01/01 10:14:56;;;;;;;6.85;1.92;;;11.60;99.90;;;;;;5002372;28;20052;-80
2023/01/01 10:17:40;;;;;;;5.28;2.03;;;11.60;99.90;;;;;;5007091;28;20050;-80
2023/01/01 10:20:24;;;;;;;6.10;2.05;;;11.70;99.90;;;;;;4997701;28;20134;-79
2023/01/01 10:22:56;;;;;;;8.00;2.40;;;11.70;99.90;;;;;;5010732;28;20353;-80
2023/01/01 10:25:28;;;;;;;10.07;2.03;;;11.80;99.90;;;;;;5014878;28;20193;-79
2023/01/01 10:27:58;;;;;;;8.35;2.15;;;11.80;99.90;;;;;;5011940;28;20132;-79
2023/01/01 10:30:25;;;;;;;7.97;2.78;;;11.90;99.90;;;;;;5013866;28;20096;-80
2023/01/01 10:32:53;;;;;;;5.65;2.20;;;11.90;99.90;;;;;;5012497;28;20065;-80
2023/01/01 10:35:33;;;;;;;12.40;2.95;;;11.90;99.90;;;;;;5011873;28;20155;-79
2023/01/01 10:38:00;;;;;;;6.82;2.10;;;11.90;99.90;;;;;;5011089;28;20077;-79
2023/01/01 10:40:28;;;;;;;6.18;2.25;;;12.00;99.90;;;;;;4993072;28;20148;-79
2023/01/01 10:42:56;;;;;;;5.40;1.98;;;12.00;99.90;;;;;;5018244;28;20488;-80
2023/01/01 10:45:37;;;;;;;6.47;1.60;;;12.00;99.90;;;;;;5011975;28;20599;-80
2023/01/01 10:48:13;;;;;;;4.25;1.67;;;12.00;99.90;;;;;;5016188;28;20157;-80
2023/01/01 10:50:42;;;;;;;3.67;1.58;;;12.10;99.90;;;;;;5014374;28;20132;-80
2023/01/01 10:53:25;;;;;;;5.28;1.85;;;12.20;99.90;;;;;;4997237;28;20049;-80
2023/01/01 10:56:00;;;;;;;3.60;1.60;;;12.20;99.90;;;;;;5014384;28;20052;-80
2023/01/01 10:58:41;;;;;;;7.55;2.15;;;12.20;99.90;;;;;;5015336;28;20053;-80
2023/01/01 11:01:28;;;;;;;7.80;2.05;;;12.20;99.90;;;;;;5015431;28;20053;-79
2023/01/01 11:04:00;;;;;;;6.93;2.38;;;12.20;99.90;;;;;;5017890;28;20049;-80
2023/01/01 11:06:34;;;;;;;5.63;1.73;;;12.20;99.90;;;;;;5012134;28;20057;-80
2023/01/01 11:09:06;;;;;;;4.57;1.77;;;12.20;99.90;;;;;;4982957;28;20296;-79
2023/01/01 11:11:41;;;;;;;5.35;1.90;;;12.30;99.90;;;;;;4997563;28;20142;-80
2023/01/01 11:14:18;;;;;;;6.28;2.60;;;12.30;99.90;;;;;;4983477;28;20144;-80
2023/01/01 11:16:45;;;;;;;7.65;2.22;;;12.30;99.90;;;;;;4979815;28;20046;-79
2023/01/01 11:19:21;;;;;;;3.70;1.70;;;12.40;99.90;;;;;;5018007;28;20234;-79
2023/01/01 11:21:48;;;;;;;4.60;1.95;;;12.40;99.90;;;;;;5010306;28;20301;-79
2023/01/01 11:24:20;;;;;;;5.80;1.90;;;12.40;99.90;;;;;;4996121;28;20058;-79
2023/01/01 11:26:47;;;;;;;7.18;2.50;;;12.40;99.90;;;;;;5013032;28;20046;-79
2023/01/01 11:29:23;;;;;;;;;;;12.40;99.90;;;;;;5000518;28;20187;-80
2023/01/01 11:31:50;;;;;;;8.70;2.00;;;12.50;99.90;;;;;;5008403;28;19932;-79
2023/01/01 11:34:25;;;;;;;4.45;1.75;;;12.50;99.90;;;;;;5012541;28;20076;-80
2023/01/01 11:36:54;;;;;;;3.53;1.38;;;12.50;99.90;;;;;;5009623;28;20108;-79
2023/01/01 11:39:27;;;;;;;5.90;2.45;;;12.60;99.90;;;;;;4998472;28;20052;-79
2023/01/01 11:41:55;;;;;;;3.08;1.75;;;12.60;99.90;;;;;;5010646;28;20481;-79
2023/01/01 11:44:39;;;;;;;4.82;1.27;;;12.60;99.90;;;;;;5014479;28;20195;-80
2023/01/01 11:47:05;;;;;;;;;;;12.60;99.90;;;;;;5011574;28;20052;-80
2023/01/01 11:49:33;;;;;;;4.43;1.52;;;12.60;99.90;;;;;;5009926;28;19994;-79
2023/01/01 11:51:59;;;;;;;6.72;1.90;;;12.70;99.90;;;;;;4992797;28;20054;-79
2023/01/01 11:54:31;;;;;;;3.92;1.63;;;12.60;99.90;;;;;;5011042;28;20070;-79
2023/01/01 11:57:15;;;;;;;5.03;2.00;;;12.60;99.90;;;;;;5012127;28;20324;-76
2023/01/01 11:59:47;;;;;;;4.57;1.65;;;12.60;99.90;;;;;;4999350;28;20580;-76
2023/01/01 12:02:29;;;;;;;4.78;1.90;;;12.50;99.90;;;;;;5016181;28;20076;-76
2023/01/01 12:05:26;;;;;;;3.95;1.48;;;12.60;99.90;;;;;;5013254;28;20163;-76
2023/01/01 12:07:52;;;;;;;3.42;1.05;;;12.60;99.90;;;;;;5013461;28;20052;-76
2023/01/01 12:10:50;;;;;;;4.05;1.67;;;12.60;99.90;;;;;;5013522;28;20055;-76
2023/01/01 12:13:19;;;;;;;5.60;2.00;;;12.60;99.90;;;;;;5010216;28;20059;-76
2023/01/01 12:15:47;;;;;;;5.05;1.35;;;12.50;99.90;;;;;;4982539;28;20060;-76
2023/01/01 12:18:26;;;;;;;5.72;2.05;;;12.60;99.90;;;;;;5011712;28;20054;-76
2023/01/01 12:21:00;;;;;;;6.18;1.80;;;12.60;99.90;;;;;;4997791;28;20141;-76
2023/01/01 12:23:27;;;;;;;4.18;1.77;;;12.60;99.90;;;;;;5013472;28;20050;-77
2023/01/01 12:26:24;;;;;;;4.38;1.17;;;12.60;99.90;;;;;;5011634;28;20248;-76
2023/01/01 12:29:13;;;;;;;5.53;1.80;;;12.60;99.90;;;;;;4995306;28;20068;-77
2023/01/01 12:32:06;;;;;;;4.35;2.03;;;12.70;99.90;;;;;;5003539;28;20127;-77
2023/01/01 12:34:47;;;;;;;4.80;2.10;;;12.70;99.90;;;;;;4995245;28;20080;-78
2023/01/01 12:37:37;;;;;;;4.82;1.98;;;12.70;99.90;;;;;;4989238;28;20060;-77
2023/01/01 12:40:26;;;;;;;6.55;2.40;;;12.70;99.90;;;;;;5013053;28;20053;-78
2023/01/01 12:43:17;;;;;;;5.13;1.70;;;12.70;99.90;;;;;;5005598;28;20066;-77
2023/01/01 12:46:17;;;;;;;6.38;1.80;;;12.70;99.90;;;;;;4994942;28;20050;-77
2023/01/01 12:48:47;;;;;;;7.53;2.05;;;12.70;99.90;;;;;;5012585;28;20065;-77
2023/01/01 12:51:17;;;;;;;3.22;1.42;;;12.60;99.90;;;;;;5005509;28;20057;-78
2023/01/01 12:53:50;;;;;;;4.97;1.70;;;12.70;99.90;;;;;;5027296;28;20429;-77
2023/01/01 12:56:27;;;;;;;6.38;2.65;;;12.70;99.90;;;;;;5005019;28;20152;-77
2023/01/01 12:58:57;;;;;;;5.57;1.52;;;12.70;99.90;;;;;;5015367;28;20506;-77
2023/01/01 13:01:29;;;;;;;5.65;1.95;;;12.80;99.90;;;;;;4991200;28;20398;-77
2023/01/01 13:04:04;;;;;;;8.23;2.78;;;12.70;99.90;;;;;;4989141;28;20065;-78
2023/01/01 13:06:50;;;;;;;10.35;3.05;;;12.70;99.90;;;;;;4994806;28;20124;-77
2023/01/01 13:09:21;;;;;;;4.45;1.90;;;12.70;99.90;;;;;;5004627;28;20057;-76
2023/01/01 13:11:56;;;;;;;5.20;1.95;;;12.70;99.90;;;;;;5013998;28;20168;-76
2023/01/01 13:14:23;;;;;;;5.47;1.60;;;12.80;99.90;;;;;;5014083;28;20149;-76
2023/01/01 13:16:53;;;;;;;6.47;1.90;;;12.80;99.90;;;;;;4999061;28;20524;-76